Air Navigation Services of Czech Republic
Airport: LKTB Updated:  04.06.2020 11:03:24  UTC
 METAR LKTB 04.06. 11:00 ...
METAR LKTB 041100Z 14008KT 090V170 9999 FEW040 22/12 Q0998 NOSIG RMK REG QNH 0995=
 TAF LKTB 04.06. 11:00 ...
TAF LKTB 041100Z 0412/0518 17008KT 9999 SCT045      TEMPO 0412/0417 FEW047CB      TEMPO 0500/0508 8000 RA BKN030      PROB40 TEMPO 0500/0508 28010G20KT 4000 TSRA SCT020CB      TEMPO 0508/0518 29010G20KT 7000 SHRA SCT036CB BKN040=